sensor_id;sensor_type;location;lat;lon;timestamp;pressure;altitude;pressure_sealevel;temperature;humidity
49455;BME280;69710;64.656;21.218;2023-05-10T00:00:25;101474.96;;;7.89;71.33
49455;BME280;69710;64.656;21.218;2023-05-10T00:02:53;101478.50;;;7.13;72.03
49455;BME280;69710;64.656;21.218;2023-05-10T00:05:21;101477.56;;;7.76;70.42
49455;BME280;69710;64.656;21.218;2023-05-10T00:07:48;101474.73;;;7.96;70.43
49455;BME280;69710;64.656;21.218;2023-05-10T00:10:16;101476.63;;;8.00;70.55
49455;BME280;69710;64.656;21.218;2023-05-10T00:12:44;101476.82;;;7.52;70.98
49455;BME280;69710;64.656;21.218;2023-05-10T00:15:11;101477.34;;;7.45;70.51
49455;BME280;69710;64.656;21.218;2023-05-10T00:17:39;101478.52;;;8.01;69.00
49455;BME280;69710;64.656;21.218;2023-05-10T00:20:08;101478.13;;;8.20;69.17
49455;BME280;69710;64.656;21.218;2023-05-10T00:22:35;101478.40;;;8.27;69.14
49455;BME280;69710;64.656;21.218;2023-05-10T00:25:03;101480.81;;;9.26;68.20
49455;BME280;69710;64.656;21.218;2023-05-10T00:27:31;101481.31;;;8.43;68.50
49455;BME280;69710;64.656;21.218;2023-05-10T00:29:58;101481.74;;;8.13;69.15
49455;BME280;69710;64.656;21.218;2023-05-10T00:32:26;101483.31;;;7.53;69.96
49455;BME280;69710;64.656;21.218;2023-05-10T00:34:53;101483.42;;;7.73;69.79
49455;BME280;69710;64.656;21.218;2023-05-10T00:37:24;101482.06;;;8.18;68.58
49455;BME280;69710;64.656;21.218;2023-05-10T00:39:52;101481.61;;;8.56;68.33
49455;BME280;69710;64.656;21.218;2023-05-10T00:42:19;101485.65;;;7.08;71.47
49455;BME280;69710;64.656;21.218;2023-05-10T00:44:46;101485.90;;;7.18;72.65
49455;BME280;69710;64.656;21.218;2023-05-10T00:47:26;101486.59;;;7.11;71.79
49455;BME280;69710;64.656;21.218;2023-05-10T00:49:54;101481.71;;;7.29;73.30
49455;BME280;69710;64.656;21.218;2023-05-10T00:52:21;101479.15;;;7.84;71.24
49455;BME280;69710;64.656;21.218;2023-05-10T00:54:51;101477.91;;;7.57;71.74
49455;BME280;69710;64.656;21.218;2023-05-10T00:57:19;101479.49;;;8.67;68.95
49455;BME280;69710;64.656;21.218;2023-05-10T00:59:46;101484.16;;;7.10;71.93
49455;BME280;69710;64.656;21.218;2023-05-10T01:02:15;101487.62;;;7.53;72.10
49455;BME280;69710;64.656;21.218;2023-05-10T01:04:43;101487.76;;;7.29;71.98
49455;BME280;69710;64.656;21.218;2023-05-10T01:07:11;101486.94;;;7.54;71.83
49455;BME280;69710;64.656;21.218;2023-05-10T01:09:38;101493.24;;;7.77;70.81
49455;BME280;69710;64.656;21.218;2023-05-10T01:12:06;101494.71;;;7.41;71.02
49455;BME280;69710;64.656;21.218;2023-05-10T01:14:34;101495.97;;;6.80;73.33
49455;BME280;69710;64.656;21.218;2023-05-10T01:17:03;101499.47;;;6.59;74.57
49455;BME280;69710;64.656;21.218;2023-05-10T01:19:34;101497.53;;;6.91;75.61
49455;BME280;69710;64.656;21.218;2023-05-10T01:22:10;101498.69;;;7.25;74.06
49455;BME280;69710;64.656;21.218;2023-05-10T01:25:25;101498.60;;;7.43;74.95
49455;BME280;69710;64.656;21.218;2023-05-10T01:30:33;101500.37;;;6.84;76.88
49455;BME280;69710;64.656;21.218;2023-05-10T01:33:10;101501.06;;;5.92;81.27
49455;BME280;69710;64.656;21.218;2023-05-10T01:35:43;101500.85;;;7.23;77.45
49455;BME280;69710;64.656;21.218;2023-05-10T01:38:18;101497.41;;;6.54;79.40
49455;BME280;69710;64.656;21.218;2023-05-10T01:40:54;101495.97;;;7.10;78.93
49455;BME280;69710;64.656;21.218;2023-05-10T01:43:28;101496.82;;;6.70;81.26
49455;BME280;69710;64.656;21.218;2023-05-10T01:46:01;101495.65;;;6.71;81.86
49455;BME280;69710;64.656;21.218;2023-05-10T01:48:30;101499.68;;;6.87;81.54
49455;BME280;69710;64.656;21.218;2023-05-10T01:50:58;101500.24;;;6.93;80.95
49455;BME280;69710;64.656;21.218;2023-05-10T01:53:26;101500.94;;;7.38;79.30
49455;BME280;69710;64.656;21.218;2023-05-10T01:55:55;101500.70;;;7.18;80.18
49455;BME280;69710;64.656;21.218;2023-05-10T01:58:28;101504.73;;;6.63;81.11
49455;BME280;69710;64.656;21.218;2023-05-10T02:00:58;101501.85;;;7.81;78.72
49455;BME280;69710;64.656;21.218;2023-05-10T02:03:27;101502.83;;;6.46;81.72
49455;BME280;69710;64.656;21.218;2023-05-10T02:05:56;101508.38;;;6.57;82.58
49455;BME280;69710;64.656;21.218;2023-05-10T02:08:25;101505.27;;;7.06;79.87
49455;BME280;69710;64.656;21.218;2023-05-10T02:10:55;101509.11;;;6.44;81.70
49455;BME280;69710;64.656;21.218;2023-05-10T02:13:24;101508.58;;;7.05;81.03
49455;BME280;69710;64.656;21.218;2023-05-10T02:15:54;101512.70;;;6.32;83.23
49455;BME280;69710;64.656;21.218;2023-05-10T02:18:24;101513.38;;;6.75;83.74
49455;BME280;69710;64.656;21.218;2023-05-10T02:20:54;101514.83;;;6.62;82.98
49455;BME280;69710;64.656;21.218;2023-05-10T02:23:23;101515.50;;;6.66;82.36
49455;BME280;69710;64.656;21.218;2023-05-10T02:25:54;101517.40;;;6.58;83.18
49455;BME280;69710;64.656;21.218;2023-05-10T02:28:24;101520.59;;;6.72;83.15
49455;BME280;69710;64.656;21.218;2023-05-10T02:30:51;101519.31;;;6.53;84.90
49455;BME280;69710;64.656;21.218;2023-05-10T02:33:20;101521.84;;;6.13;84.58
49455;BME280;69710;64.656;21.218;2023-05-10T02:35:49;101520.15;;;6.37;83.86
49455;BME280;69710;64.656;21.218;2023-05-10T02:38:19;101519.78;;;6.66;83.85
49455;BME280;69710;64.656;21.218;2023-05-10T02:40:48;101516.73;;;7.06;82.25
49455;BME280;69710;64.656;21.218;2023-05-10T02:43:17;101520.28;;;6.86;82.03
49455;BME280;69710;64.656;21.218;2023-05-10T02:45:47;101517.01;;;7.20;81.41
49455;BME280;69710;64.656;21.218;2023-05-10T02:48:15;101519.56;;;7.56;79.05
49455;BME280;69710;64.656;21.218;2023-05-10T02:50:44;101521.92;;;7.19;79.39
49455;BME280;69710;64.656;21.218;2023-05-10T02:53:20;101519.35;;;7.48;78.79
49455;BME280;69710;64.656;21.218;2023-05-10T02:55:50;101516.34;;;7.65;78.78
49455;BME280;69710;64.656;21.218;2023-05-10T02:58:18;101514.37;;;7.52;79.01
49455;BME280;69710;64.656;21.218;2023-05-10T03:00:46;101512.44;;;7.75;78.07
49455;BME280;69710;64.656;21.218;2023-05-10T03:03:14;101510.11;;;8.52;76.47
49455;BME280;69710;64.656;21.218;2023-05-10T03:05:42;101511.90;;;7.47;79.35
49455;BME280;69710;64.656;21.218;2023-05-10T03:08:10;101511.78;;;6.99;80.05
49455;BME280;69710;64.656;21.218;2023-05-10T03:10:47;101509.21;;;6.79;80.66
49455;BME280;69710;64.656;21.218;2023-05-10T03:13:28;101505.53;;;7.50;79.26
49455;BME280;69710;64.656;21.218;2023-05-10T03:16:02;101506.72;;;7.88;77.34
49455;BME280;69710;64.656;21.218;2023-05-10T03:18:40;101506.26;;;8.28;76.62
49455;BME280;69710;64.656;21.218;2023-05-10T03:21:11;101504.51;;;8.69;75.35
49455;BME280;69710;64.656;21.218;2023-05-10T03:23:43;101507.38;;;7.52;78.14
49455;BME280;69710;64.656;21.218;2023-05-10T03:26:15;101510.45;;;7.28;78.54
49455;BME280;69710;64.656;21.218;2023-05-10T03:28:46;101507.40;;;7.81;79.43
49455;BME280;69710;64.656;21.218;2023-05-10T03:31:14;101510.06;;;7.33;79.77
49455;BME280;69710;64.656;21.218;2023-05-10T03:33:47;101511.01;;;7.56;78.03
49455;BME280;69710;64.656;21.218;2023-05-10T03:36:14;101507.97;;;7.38;78.75
49455;BME280;69710;64.656;21.218;2023-05-10T03:38:42;101508.00;;;6.68;81.82
49455;BME280;69710;64.656;21.218;2023-05-10T03:41:09;101509.00;;;7.34;81.64
49455;BME280;69710;64.656;21.218;2023-05-10T03:43:37;101512.24;;;7.00;82.87
49455;BME280;69710;64.656;21.218;2023-05-10T03:46:05;101518.51;;;6.01;86.16
49455;BME280;69710;64.656;21.218;2023-05-10T03:48:33;101518.34;;;6.44;85.53
49455;BME280;69710;64.656;21.218;2023-05-10T03:51:01;101521.63;;;6.66;84.78
49455;BME280;69710;64.656;21.218;2023-05-10T03:53:28;101527.07;;;6.64;86.06
49455;BME280;69710;64.656;21.218;2023-05-10T03:55:56;101524.67;;;7.38;83.90
49455;BME280;69710;64.656;21.218;2023-05-10T03:58:23;101522.85;;;6.43;88.05
49455;BME280;69710;64.656;21.218;2023-05-10T04:00:51;101524.69;;;6.58;89.63
49455;BME280;69710;64.656;21.218;2023-05-10T04:03:19;101525.74;;;6.55;88.69
49455;BME280;69710;64.656;21.218;2023-05-10T04:05:47;101525.15;;;6.67;89.41
49455;BME280;69710;64.656;21.218;2023-05-10T04:08:15;101519.33;;;7.53;85.29
49455;BME280;69710;64.656;21.218;2023-05-10T04:10:43;101521.71;;;7.92;84.58
49455;BME280;69710;64.656;21.218;2023-05-10T04:13:10;101516.14;;;7.86;83.28
49455;BME280;69710;64.656;21.218;2023-05-10T04:15:38;101516.96;;;7.93;83.00
49455;BME280;69710;64.656;21.218;2023-05-10T04:18:06;101514.97;;;8.08;81.05
49455;BME280;69710;64.656;21.218;2023-05-10T04:20:34;101517.53;;;8.19;79.64
49455;BME280;69710;64.656;21.218;2023-05-10T04:23:02;101513.46;;;9.17;77.31
49455;BME280;69710;64.656;21.218;2023-05-10T04:25:29;101510.90;;;8.70;77.86
49455;BME280;69710;64.656;21.218;2023-05-10T04:27:57;101506.52;;;9.16;75.78
49455;BME280;69710;64.656;21.218;2023-05-10T04:30:24;101499.91;;;9.17;74.38
49455;BME280;69710;64.656;21.218;2023-05-10T04:32:52;101506.15;;;8.87;74.66
49455;BME280;69710;64.656;21.218;2023-05-10T04:35:19;101502.13;;;9.22;74.01
49455;BME280;69710;64.656;21.218;2023-05-10T04:37:47;101501.12;;;9.20;74.21
49455;BME280;69710;64.656;21.218;2023-05-10T04:40:14;101502.69;;;8.89;75.22
49455;BME280;69710;64.656;21.218;2023-05-10T04:42:43;101499.64;;;8.79;75.29
49455;BME280;69710;64.656;21.218;2023-05-10T04:45:17;101498.97;;;9.54;73.41
49455;BME280;69710;64.656;21.218;2023-05-10T04:47:46;101499.22;;;9.71;72.35
49455;BME280;69710;64.656;21.218;2023-05-10T04:50:14;101497.31;;;9.55;72.97
49455;BME280;69710;64.656;21.218;2023-05-10T04:52:41;101499.23;;;9.08;74.23
49455;BME280;69710;64.656;21.218;2023-05-10T04:55:09;101495.27;;;9.01;73.61
49455;BME280;69710;64.656;21.218;2023-05-10T04:57:36;101494.59;;;9.24;73.07
49455;BME280;69710;64.656;21.218;2023-05-10T05:00:05;101496.86;;;9.30;73.06
49455;BME280;69710;64.656;21.218;2023-05-10T05:02:33;101495.47;;;10.19;71.11
49455;BME280;69710;64.656;21.218;2023-05-10T05:05:01;101499.99;;;9.86;71.16
49455;BME280;69710;64.656;21.218;2023-05-10T05:07:29;101499.15;;;9.75;71.66
49455;BME280;69710;64.656;21.218;2023-05-10T05:09:56;101501.11;;;9.71;71.01
49455;BME280;69710;64.656;21.218;2023-05-10T05:12:24;101489.49;;;9.01;71.82
49455;BME280;69710;64.656;21.218;2023-05-10T05:14:51;101489.69;;;9.65;69.44
49455;BME280;69710;64.656;21.218;2023-05-10T05:17:18;101490.91;;;9.40;71.34
49455;BME280;69710;64.656;21.218;2023-05-10T05:19:46;101486.09;;;10.14;71.15
49455;BME280;69710;64.656;21.218;2023-05-10T05:22:13;101485.26;;;9.90;70.26
49455;BME280;69710;64.656;21.218;2023-05-10T05:24:40;101482.80;;;10.06;70.19
49455;BME280;69710;64.656;21.218;2023-05-10T05:27:08;101479.98;;;10.57;68.14
49455;BME280;69710;64.656;21.218;2023-05-10T05:29:35;101482.24;;;10.73;66.60
49455;BME280;69710;64.656;21.218;2023-05-10T05:32:02;101479.06;;;11.33;66.18
49455;BME280;69710;64.656;21.218;2023-05-10T05:34:30;101478.31;;;11.08;65.97
49455;BME280;69710;64.656;21.218;2023-05-10T05:36:57;101476.85;;;11.25;65.99
49455;BME280;69710;64.656;21.218;2023-05-10T05:39:24;101478.03;;;10.35;67.87
49455;BME280;69710;64.656;21.218;2023-05-10T05:41:52;101473.83;;;11.45;65.54
49455;BME280;69710;64.656;21.218;2023-05-10T05:44:19;101470.19;;;10.90;67.55
49455;BME280;69710;64.656;21.218;2023-05-10T05:46:47;101474.38;;;10.62;67.65
49455;BME280;69710;64.656;21.218;2023-05-10T05:49:15;101479.08;;;10.11;67.06
49455;BME280;69710;64.656;21.218;2023-05-10T05:51:42;101474.64;;;10.34;67.06
49455;BME280;69710;64.656;21.218;2023-05-10T05:54:09;101472.66;;;10.92;65.88
49455;BME280;69710;64.656;21.218;2023-05-10T05:56:37;101478.34;;;10.04;68.02
49455;BME280;69710;64.656;21.218;2023-05-10T05:59:04;101479.97;;;8.74;71.62
49455;BME280;69710;64.656;21.218;2023-05-10T06:01:32;101484.68;;;9.63;70.33
49455;BME280;69710;64.656;21.218;2023-05-10T06:03:59;101484.11;;;9.88;69.21
49455;BME280;69710;64.656;21.218;2023-05-10T06:06:27;101483.72;;;8.63;72.13
49455;BME280;69710;64.656;21.218;2023-05-10T06:08:55;101480.68;;;8.17;76.45
49455;BME280;69710;64.656;21.218;2023-05-10T06:11:22;101476.22;;;8.21;75.41
49455;BME280;69710;64.656;21.218;2023-05-10T06:13:49;101477.08;;;8.58;76.25
49455;BME280;69710;64.656;21.218;2023-05-10T06:16:17;101466.72;;;9.73;73.94
49455;BME280;69710;64.656;21.218;2023-05-10T06:18:44;101462.50;;;10.36;72.63
49455;BME280;69710;64.656;21.218;2023-05-10T06:21:12;101469.69;;;10.65;69.70
49455;BME280;69710;64.656;21.218;2023-05-10T06:23:39;101470.01;;;11.22;66.98
49455;BME280;69710;64.656;21.218;2023-05-10T06:26:06;101466.42;;;11.64;65.93
49455;BME280;69710;64.656;21.218;2023-05-10T06:28:34;101467.79;;;11.58;64.97
49455;BME280;69710;64.656;21.218;2023-05-10T06:31:01;101466.57;;;12.72;61.94
49455;BME280;69710;64.656;21.218;2023-05-10T06:33:29;101461.17;;;12.51;61.95
49455;BME280;69710;64.656;21.218;2023-05-10T06:35:56;101457.15;;;12.41;61.41
49455;BME280;69710;64.656;21.218;2023-05-10T06:38:23;101458.34;;;12.38;60.90
49455;BME280;69710;64.656;21.218;2023-05-10T06:40:51;101459.47;;;12.89;60.14
49455;BME280;69710;64.656;21.218;2023-05-10T06:43:18;101459.20;;;12.78;60.03
49455;BME280;69710;64.656;21.218;2023-05-10T06:45:45;101457.01;;;12.75;58.59
49455;BME280;69710;64.656;21.218;2023-05-10T06:48:13;101459.72;;;13.12;58.33
49455;BME280;69710;64.656;21.218;2023-05-10T06:50:40;101459.30;;;12.77;59.29
49455;BME280;69710;64.656;21.218;2023-05-10T06:53:08;101459.10;;;12.99;58.41
49455;BME280;69710;64.656;21.218;2023-05-10T06:55:35;101460.53;;;13.19;56.91
49455;BME280;69710;64.656;21.218;2023-05-10T06:58:03;101453.73;;;13.09;57.20
49455;BME280;69710;64.656;21.218;2023-05-10T07:00:30;101458.37;;;12.84;57.37
49455;BME280;69710;64.656;21.218;2023-05-10T07:02:57;101461.36;;;12.98;57.12
49455;BME280;69710;64.656;21.218;2023-05-10T07:05:24;101456.46;;;13.06;56.75
49455;BME280;69710;64.656;21.218;2023-05-10T07:07:52;101455.11;;;13.90;56.69
49455;BME280;69710;64.656;21.218;2023-05-10T07:10:19;101455.25;;;13.57;56.50
49455;BME280;69710;64.656;21.218;2023-05-10T07:12:46;101454.39;;;13.70;55.81
49455;BME280;69710;64.656;21.218;2023-05-10T07:15:14;101456.32;;;14.18;54.78
49455;BME280;69710;64.656;21.218;2023-05-10T07:17:42;101459.18;;;13.86;54.83
49455;BME280;69710;64.656;21.218;2023-05-10T07:20:10;101459.06;;;13.53;53.81
49455;BME280;69710;64.656;21.218;2023-05-10T07:22:37;101458.23;;;14.33;54.21
49455;BME280;69710;64.656;21.218;2023-05-10T07:25:06;101461.06;;;14.40;53.56
49455;BME280;69710;64.656;21.218;2023-05-10T07:27:33;101459.97;;;13.92;54.69
49455;BME280;69710;64.656;21.218;2023-05-10T07:30:01;101460.49;;;14.64;52.41
49455;BME280;69710;64.656;21.218;2023-05-10T07:32:28;101460.29;;;14.50;53.00
49455;BME280;69710;64.656;21.218;2023-05-10T07:34:56;101459.24;;;14.57;52.22
49455;BME280;69710;64.656;21.218;2023-05-10T07:37:23;101461.60;;;14.44;52.86
49455;BME280;69710;64.656;21.218;2023-05-10T07:39:51;101460.87;;;14.75;51.48
49455;BME280;69710;64.656;21.218;2023-05-10T07:42:18;101460.28;;;15.21;50.34
49455;BME280;69710;64.656;21.218;2023-05-10T07:44:45;101457.21;;;16.29;48.52
49455;BME280;69710;64.656;21.218;2023-05-10T07:47:13;101461.12;;;15.90;48.70
49455;BME280;69710;64.656;21.218;2023-05-10T07:49:41;101460.23;;;16.58;49.03
49455;BME280;69710;64.656;21.218;2023-05-10T07:52:08;101455.63;;;16.66;47.53
49455;BME280;69710;64.656;21.218;2023-05-10T07:54:36;101457.28;;;17.01;46.41
49455;BME280;69710;64.656;21.218;2023-05-10T07:57:03;101457.77;;;17.58;45.84
49455;BME280;69710;64.656;21.218;2023-05-10T07:59:31;101458.09;;;17.56;45.69
49455;BME280;69710;64.656;21.218;2023-05-10T08:01:59;101452.00;;;17.95;44.61
49455;BME280;69710;64.656;21.218;2023-05-10T08:04:26;101457.63;;;17.51;43.50
49455;BME280;69710;64.656;21.218;2023-05-10T08:06:53;101457.95;;;17.17;44.07
49455;BME280;69710;64.656;21.218;2023-05-10T08:09:21;101458.29;;;17.32;42.49
49455;BME280;69710;64.656;21.218;2023-05-10T08:11:49;101460.53;;;17.96;42.03
49455;BME280;69710;64.656;21.218;2023-05-10T08:14:17;101460.04;;;17.42;42.48
49455;BME280;69710;64.656;21.218;2023-05-10T08:16:44;101460.86;;;17.72;42.54
49455;BME280;69710;64.656;21.218;2023-05-10T08:19:11;101461.13;;;17.85;41.42
49455;BME280;69710;64.656;21.218;2023-05-10T08:21:39;101460.23;;;17.51;41.85
49455;BME280;69710;64.656;21.218;2023-05-10T08:24:07;101460.94;;;17.19;41.11
49455;BME280;69710;64.656;21.218;2023-05-10T08:26:35;101456.37;;;16.85;40.86
49455;BME280;69710;64.656;21.218;2023-05-10T08:29:03;101458.96;;;17.51;40.50
49455;BME280;69710;64.656;21.218;2023-05-10T08:31:30;101458.77;;;17.94;39.81
49455;BME280;69710;64.656;21.218;2023-05-10T08:33:58;101461.22;;;17.69;38.98
49455;BME280;69710;64.656;21.218;2023-05-10T08:36:26;101467.45;;;16.97;39.95
49455;BME280;69710;64.656;21.218;2023-05-10T08:38:54;101469.44;;;17.76;39.85
49455;BME280;69710;64.656;21.218;2023-05-10T08:41:23;101472.85;;;17.97;39.91
49455;BME280;69710;64.656;21.218;2023-05-10T08:43:51;101474.15;;;17.10;40.80
49455;BME280;69710;64.656;21.218;2023-05-10T08:46:21;101472.88;;;17.04;40.95
49455;BME280;69710;64.656;21.218;2023-05-10T08:48:50;101469.77;;;18.03;40.13
49455;BME280;69710;64.656;21.218;2023-05-10T08:51:19;101473.08;;;17.72;39.60
49455;BME280;69710;64.656;21.218;2023-05-10T08:53:48;101471.29;;;17.74;39.67
49455;BME280;69710;64.656;21.218;2023-05-10T08:56:16;101474.77;;;17.83;39.28
49455;BME280;69710;64.656;21.218;2023-05-10T08:58:43;101472.62;;;17.82;39.70
49455;BME280;69710;64.656;21.218;2023-05-10T09:01:12;101473.85;;;18.16;38.70
49455;BME280;69710;64.656;21.218;2023-05-10T09:03:40;101468.85;;;18.45;38.38
49455;BME280;69710;64.656;21.218;2023-05-10T09:06:08;101468.18;;;18.68;38.34
49455;BME280;69710;64.656;21.218;2023-05-10T09:08:36;101466.81;;;17.72;38.52
49455;BME280;69710;64.656;21.218;2023-05-10T09:11:05;101462.54;;;18.21;37.25
49455;BME280;69710;64.656;21.218;2023-05-10T09:13:32;101461.61;;;18.21;37.47
49455;BME280;69710;64.656;21.218;2023-05-10T09:16:01;101463.97;;;18.06;37.46
49455;BME280;69710;64.656;21.218;2023-05-10T09:18:30;101462.44;;;18.27;35.99
49455;BME280;69710;64.656;21.218;2023-05-10T09:20:57;101459.10;;;18.59;36.20
49455;BME280;69710;64.656;21.218;2023-05-10T09:23:24;101457.44;;;18.06;36.32
49455;BME280;69710;64.656;21.218;2023-05-10T09:26:02;101458.54;;;18.44;35.40
49455;BME280;69710;64.656;21.218;2023-05-10T09:28:32;101456.13;;;18.53;36.19
49455;BME280;69710;64.656;21.218;2023-05-10T09:30:59;101453.73;;;18.84;36.48
49455;BME280;69710;64.656;21.218;2023-05-10T09:33:27;101456.09;;;18.48;36.46
49455;BME280;69710;64.656;21.218;2023-05-10T09:35:54;101452.69;;;18.06;37.34
49455;BME280;69710;64.656;21.218;2023-05-10T09:38:23;101452.67;;;18.39;36.26
49455;BME280;69710;64.656;21.218;2023-05-10T09:40:52;101450.19;;;18.93;37.30
49455;BME280;69710;64.656;21.218;2023-05-10T09:43:21;101453.75;;;19.51;35.70
49455;BME280;69710;64.656;21.218;2023-05-10T09:45:49;101449.17;;;19.62;34.47
49455;BME280;69710;64.656;21.218;2023-05-10T09:48:17;101448.37;;;20.19;34.04
49455;BME280;69710;64.656;21.218;2023-05-10T09:50:45;101451.80;;;19.51;34.73
49455;BME280;69710;64.656;21.218;2023-05-10T09:53:15;101448.26;;;19.15;35.02
49455;BME280;69710;64.656;21.218;2023-05-10T09:55:45;101448.32;;;19.63;34.56
49455;BME280;69710;64.656;21.218;2023-05-10T09:58:14;101442.30;;;19.33;34.94
49455;BME280;69710;64.656;21.218;2023-05-10T10:00:43;101446.64;;;19.37;34.89
49455;BME280;69710;64.656;21.218;2023-05-10T10:03:14;101443.68;;;19.04;35.28
49455;BME280;69710;64.656;21.218;2023-05-10T10:05:44;101442.09;;;18.71;35.56
49455;BME280;69710;64.656;21.218;2023-05-10T10:08:13;101442.43;;;18.88;35.64
49455;BME280;69710;64.656;21.218;2023-05-10T10:10:41;101436.07;;;19.13;34.37
49455;BME280;69710;64.656;21.218;2023-05-10T10:13:09;101440.72;;;19.99;34.10
49455;BME280;69710;64.656;21.218;2023-05-10T10:15:38;101436.40;;;19.03;35.12
49455;BME280;69710;64.656;21.218;2023-05-10T10:18:06;101435.91;;;18.76;35.62
49455;BME280;69710;64.656;21.218;2023-05-10T10:20:33;101437.15;;;19.01;35.42
49455;BME280;69710;64.656;21.218;2023-05-10T10:23:02;101438.35;;;19.28;36.35
49455;BME280;69710;64.656;21.218;2023-05-10T10:25:31;101428.73;;;19.49;34.96
49455;BME280;69710;64.656;21.218;2023-05-10T10:28:11;101433.57;;;19.43;34.56
49455;BME280;69710;64.656;21.218;2023-05-10T10:30:47;101427.29;;;20.29;34.63
49455;BME280;69710;64.656;21.218;2023-05-10T10:33:33;101423.30;;;19.30;35.29
49455;BME280;69710;64.656;21.218;2023-05-10T10:36:05;101429.94;;;19.43;35.74
49455;BME280;69710;64.656;21.218;2023-05-10T10:38:38;101427.27;;;19.42;35.79
49455;BME280;69710;64.656;21.218;2023-05-10T10:41:29;101420.50;;;20.10;35.30
49455;BME280;69710;64.656;21.218;2023-05-10T10:44:37;101421.65;;;19.89;35.17
49455;BME280;69710;64.656;21.218;2023-05-10T10:47:10;101419.63;;;20.19;34.90
49455;BME280;69710;64.656;21.218;2023-05-10T10:49:43;101415.70;;;20.09;34.92
49455;BME280;69710;64.656;21.218;2023-05-10T10:52:15;101419.23;;;19.21;34.47
49455;BME280;69710;64.656;21.218;2023-05-10T10:54:50;101421.72;;;19.61;33.87
49455;BME280;69710;64.656;21.218;2023-05-10T10:57:19;101420.93;;;19.61;33.81
49455;BME280;69710;64.656;21.218;2023-05-10T10:59:47;101421.08;;;18.47;34.39
49455;BME280;69710;64.656;21.218;2023-05-10T11:02:49;101421.52;;;19.66;33.86
49455;BME280;69710;64.656;21.218;2023-05-10T11:05:33;101414.08;;;19.48;34.49
49455;BME280;69710;64.656;21.218;2023-05-10T11:08:10;101411.50;;;19.66;34.73
49455;BME280;69710;64.656;21.218;2023-05-10T11:10:39;101415.68;;;19.45;36.85
49455;BME280;69710;64.656;21.218;2023-05-10T11:13:08;101411.26;;;19.44;36.50
49455;BME280;69710;64.656;21.218;2023-05-10T11:15:38;101412.84;;;19.38;37.26
49455;BME280;69710;64.656;21.218;2023-05-10T11:18:24;101407.70;;;18.99;36.26
49455;BME280;69710;64.656;21.218;2023-05-10T11:20:56;101401.01;;;20.10;33.69
49455;BME280;69710;64.656;21.218;2023-05-10T11:23:30;101397.63;;;19.78;32.96
49455;BME280;69710;64.656;21.218;2023-05-10T11:26:00;101400.09;;;19.63;34.12
49455;BME280;69710;64.656;21.218;2023-05-10T11:28:28;101394.37;;;19.52;32.75
49455;BME280;69710;64.656;21.218;2023-05-10T11:30:55;101405.64;;;19.07;33.12
49455;BME280;69710;64.656;21.218;2023-05-10T11:33:24;101411.36;;;18.90;32.93
49455;BME280;69710;64.656;21.218;2023-05-10T11:35:51;101402.27;;;18.93;32.14
49455;BME280;69710;64.656;21.218;2023-05-10T11:38:18;101403.60;;;18.58;32.81
49455;BME280;69710;64.656;21.218;2023-05-10T11:40:46;101396.35;;;19.31;31.46
49455;BME280;69710;64.656;21.218;2023-05-10T11:43:14;101396.55;;;19.02;32.60
49455;BME280;69710;64.656;21.218;2023-05-10T11:45:41;101399.44;;;19.32;32.31
49455;BME280;69710;64.656;21.218;2023-05-10T11:48:09;101395.77;;;19.64;31.88
49455;BME280;69710;64.656;21.218;2023-05-10T11:50:36;101399.65;;;19.49;32.52
49455;BME280;69710;64.656;21.218;2023-05-10T11:53:04;101391.74;;;19.67;31.67
49455;BME280;69710;64.656;21.218;2023-05-10T11:55:34;101399.27;;;18.43;32.78
49455;BME280;69710;64.656;21.218;2023-05-10T11:58:02;101399.13;;;19.03;32.54
49455;BME280;69710;64.656;21.218;2023-05-10T12:00:30;101396.49;;;19.04;32.70
49455;BME280;69710;64.656;21.218;2023-05-10T12:02:59;101393.66;;;19.15;31.81
49455;BME280;69710;64.656;21.218;2023-05-10T12:05:27;101399.93;;;18.78;32.67
49455;BME280;69710;64.656;21.218;2023-05-10T12:08:11;101396.65;;;18.76;33.11
49455;BME280;69710;64.656;21.218;2023-05-10T12:10:39;101402.60;;;19.48;32.64
49455;BME280;69710;64.656;21.218;2023-05-10T12:13:11;101399.95;;;19.48;31.99
49455;BME280;69710;64.656;21.218;2023-05-10T12:15:39;101401.72;;;19.27;32.09
49455;BME280;69710;64.656;21.218;2023-05-10T12:18:08;101406.39;;;18.76;32.96
49455;BME280;69710;64.656;21.218;2023-05-10T12:20:37;101409.50;;;18.83;33.28
49455;BME280;69710;64.656;21.218;2023-05-10T12:23:05;101402.81;;;18.76;33.53
49455;BME280;69710;64.656;21.218;2023-05-10T12:25:34;101403.39;;;18.66;34.21
49455;BME280;69710;64.656;21.218;2023-05-10T12:28:04;101403.41;;;19.02;34.25
49455;BME280;69710;64.656;21.218;2023-05-10T12:30:34;101404.64;;;18.21;34.23
49455;BME280;69710;64.656;21.218;2023-05-10T12:33:07;101407.50;;;18.08;33.95
49455;BME280;69710;64.656;21.218;2023-05-10T12:35:44;101407.74;;;18.03;33.86
49455;BME280;69710;64.656;21.218;2023-05-10T12:38:29;101402.48;;;18.77;33.54
49455;BME280;69710;64.656;21.218;2023-05-10T12:41:00;101402.87;;;18.40;33.31
49455;BME280;69710;64.656;21.218;2023-05-10T12:43:28;101402.34;;;18.35;33.21
49455;BME280;69710;64.656;21.218;2023-05-10T12:45:56;101409.71;;;18.84;33.17
49455;BME280;69710;64.656;21.218;2023-05-10T12:48:23;101408.92;;;18.99;32.46
49455;BME280;69710;64.656;21.218;2023-05-10T12:50:51;101400.30;;;18.92;33.16
49455;BME280;69710;64.656;21.218;2023-05-10T12:53:18;101403.27;;;18.52;32.96
49455;BME280;69710;64.656;21.218;2023-05-10T12:55:46;101406.07;;;18.24;32.47
49455;BME280;69710;64.656;21.218;2023-05-10T12:58:13;101402.43;;;18.07;32.10